createdAt,value
2017-04-23T00:04:09.454Z,4.87
2017-04-23T00:05:07.716Z,8.87
2017-04-23T00:06:06.676Z,9.57
2017-04-23T00:07:04.979Z,5.68
2017-04-23T00:08:03.333Z,7.88
2017-04-23T00:09:01.633Z,7.25
2017-04-23T00:10:00.035Z,9.58
2017-04-23T00:10:59.051Z,6.68
2017-04-23T00:11:57.334Z,8.58
2017-04-23T00:12:55.644Z,8.05
2017-04-23T00:13:53.918Z,4.20
2017-04-23T00:14:52.974Z,4.43
2017-04-23T00:15:51.332Z,8.35
2017-04-23T00:16:50.373Z,4.58
2017-04-23T00:17:48.665Z,8.07
2017-04-23T00:18:46.938Z,7.13
2017-04-23T00:19:45.205Z,10.37
2017-04-23T00:20:43.512Z,6.77
2017-04-23T00:21:41.760Z,5.03
2017-04-23T00:22:40.246Z,6.83
2017-04-23T00:23:38.518Z,5.92
2017-04-23T00:24:36.830Z,9.68
2017-04-23T00:25:35.087Z,8.13
2017-04-23T00:26:33.407Z,5.68
2017-04-23T00:27:31.872Z,5.80
2017-04-23T00:28:30.265Z,8.63
2017-04-23T00:29:29.296Z,8.42
2017-04-23T00:30:27.647Z,9.32
2017-04-23T00:31:25.875Z,9.03
2017-04-23T00:32:24.149Z,10.60
2017-04-23T00:33:23.131Z,6.03
2017-04-23T00:34:22.149Z,5.73
2017-04-23T00:35:20.383Z,3.47
2017-04-23T00:36:19.456Z,9.28
2017-04-23T00:37:17.837Z,13.67
2017-04-23T00:38:16.952Z,6.20
2017-04-23T00:39:15.152Z,6.40
2017-04-23T00:40:13.411Z,8.83
2017-04-23T00:41:11.736Z,6.35
2017-04-23T00:42:10.025Z,7.72
2017-04-23T00:43:08.330Z,7.68
2017-04-23T00:44:06.647Z,5.37
2017-04-23T00:45:04.944Z,10.97
2017-04-23T00:46:03.286Z,11.22
2017-04-23T00:47:01.554Z,10.08
2017-04-23T00:47:59.878Z,6.03
2017-04-23T00:48:58.164Z,7.00
2017-04-23T00:49:57.142Z,4.05
2017-04-23T00:50:57.153Z,5.55
2017-04-23T00:51:56.127Z,6.97
2017-04-23T00:52:55.141Z,9.40
2017-04-23T00:53:53.420Z,8.25
2017-04-23T00:54:51.676Z,10.65
2017-04-23T00:55:49.952Z,10.72
2017-04-23T00:56:48.200Z,7.42
2017-04-23T00:57:46.533Z,9.48
2017-04-23T00:58:44.831Z,5.53
2017-04-23T00:59:43.820Z,8.40
2017-04-23T01:00:42.529Z,6.17
2017-04-23T01:01:41.686Z,8.00
2017-04-23T01:02:40.002Z,8.67
2017-04-23T01:03:38.745Z,6.90
2017-04-23T01:04:37.175Z,7.28
2017-04-23T01:05:37.732Z,6.13
2017-04-23T01:06:36.044Z,6.50
2017-04-23T01:07:35.055Z,5.73
2017-04-23T01:08:34.212Z,7.13
2017-04-23T01:09:32.495Z,7.92
2017-04-23T01:10:31.399Z,6.55
2017-04-23T01:11:30.471Z,5.90
2017-04-23T01:12:29.527Z,5.63
2017-04-23T01:13:28.501Z,13.80
2017-04-23T01:14:26.784Z,9.83
2017-04-23T01:15:25.099Z,5.67
2017-04-23T01:16:24.280Z,6.82
2017-04-23T01:17:22.819Z,10.32
2017-04-23T01:18:21.223Z,8.08
2017-04-23T01:19:19.699Z,4.50
2017-04-23T01:20:19.054Z,7.67
2017-04-23T01:21:17.296Z,8.20
2017-04-23T01:22:15.571Z,5.23
2017-04-23T01:23:13.840Z,5.00
2017-04-23T01:24:12.207Z,9.05
2017-04-23T01:25:10.543Z,7.98
2017-04-23T01:26:08.874Z,6.20
2017-04-23T01:27:07.964Z,6.08
2017-04-23T01:28:07.015Z,9.18
2017-04-23T01:29:05.900Z,7.27
2017-04-23T01:30:04.930Z,7.80
2017-04-23T01:31:03.235Z,4.50
2017-04-23T01:32:01.542Z,9.18
2017-04-23T01:32:59.881Z,12.75
2017-04-23T01:33:58.155Z,6.17
2017-04-23T01:34:56.439Z,7.00
2017-04-23T01:35:55.431Z,7.68
2017-04-23T01:36:54.226Z,5.57
2017-04-23T01:37:52.535Z,5.55
2017-04-23T01:38:50.954Z,7.03
2017-04-23T01:39:49.986Z,8.40
2017-04-23T01:40:48.884Z,8.80
2017-04-23T01:41:47.266Z,5.20
2017-04-23T01:42:45.532Z,5.37
2017-04-23T01:43:43.977Z,7.63
2017-04-23T01:44:42.616Z,15.80
2017-04-23T01:45:41.012Z,6.50
2017-04-23T01:46:39.997Z,7.03
2017-04-23T01:47:39.445Z,9.87
2017-04-23T01:48:38.517Z,12.13
2017-04-23T01:49:37.620Z,6.60
2017-04-23T01:50:36.689Z,9.12
2017-04-23T01:51:36.336Z,6.00
2017-04-23T01:52:34.760Z,5.10
2017-04-23T01:53:33.740Z,8.63
2017-04-23T01:54:32.895Z,8.73
2017-04-23T01:55:31.361Z,7.65
2017-04-23T01:56:30.172Z,10.95
2017-04-23T01:57:29.219Z,9.33
2017-04-23T01:58:27.532Z,6.43
2017-04-23T01:59:26.619Z,6.23
2017-04-23T02:00:25.676Z,8.33
2017-04-23T02:01:24.191Z,13.57
2017-04-23T02:02:22.706Z,5.60
2017-04-23T02:03:21.623Z,9.35
2017-04-23T02:04:20.602Z,6.72
2017-04-23T02:05:18.825Z,3.57
2017-04-23T02:06:17.156Z,12.32
2017-04-23T02:07:15.483Z,7.77
2017-04-23T02:08:13.800Z,6.05
2017-04-23T02:09:12.093Z,9.60
2017-04-23T02:10:10.446Z,7.10
2017-04-23T02:11:08.922Z,8.28
2017-04-23T02:12:07.872Z,7.10
2017-04-23T02:13:06.819Z,7.63
2017-04-23T02:14:05.078Z,10.05
2017-04-23T02:15:03.335Z,10.25
2017-04-23T02:16:02.026Z,8.10
2017-04-23T02:17:01.076Z,6.40
2017-04-23T02:17:59.347Z,11.43
2017-04-23T02:18:58.676Z,8.78
2017-04-23T02:19:57.036Z,11.00
2017-04-23T02:20:55.507Z,9.03
2017-04-23T02:21:53.764Z,6.80
2017-04-23T02:22:52.098Z,7.35
2017-04-23T02:23:50.599Z,8.18
2017-04-23T02:24:48.842Z,8.42
2017-04-23T02:25:47.155Z,3.65
2017-04-23T02:26:45.385Z,8.45
2017-04-23T02:27:43.642Z,10.57
2017-04-23T02:28:41.919Z,8.52
2017-04-23T02:29:40.305Z,12.95
2017-04-23T02:30:39.520Z,6.77
2017-04-23T02:31:37.831Z,8.37
2017-04-23T02:32:36.107Z,6.17
2017-04-23T02:33:34.548Z,9.42
2017-04-23T02:34:33.515Z,10.40
2017-04-23T02:35:31.970Z,6.02
2017-04-23T02:36:30.184Z,7.63
2017-04-23T02:37:28.450Z,8.53
2017-04-23T02:38:26.675Z,4.92
2017-04-23T02:39:24.986Z,6.72
2017-04-23T02:40:23.837Z,8.98
2017-04-23T02:41:22.992Z,11.22
2017-04-23T02:42:21.358Z,8.05
2017-04-23T02:43:19.705Z,5.07
2017-04-23T02:44:17.951Z,12.38
2017-04-23T02:45:16.268Z,5.97
2017-04-23T02:46:14.504Z,6.92
2017-04-23T02:47:13.370Z,5.55
2017-04-23T02:48:11.734Z,5.73
2017-04-23T02:49:10.105Z,6.15
2017-04-23T02:50:08.383Z,15.12
2017-04-23T02:51:06.644Z,6.30
2017-04-23T02:52:05.954Z,6.90
2017-04-23T02:53:07.796Z,4.68
2017-04-23T02:54:06.042Z,9.98
2017-04-23T02:55:04.646Z,11.92
2017-04-23T02:56:02.948Z,5.00
2017-04-23T02:57:01.334Z,9.67
2017-04-23T02:58:00.337Z,10.58
2017-04-23T02:58:58.664Z,6.02
2017-04-23T02:59:57.075Z,7.02
2017-04-23T03:00:55.343Z,8.13
2017-04-23T03:01:53.260Z,12.17
2017-04-23T03:02:51.820Z,6.73
2017-04-23T03:03:50.135Z,8.12
2017-04-23T03:04:48.411Z,6.83
2017-04-23T03:05:46.723Z,7.85
2017-04-23T03:06:45.501Z,11.12
2017-04-23T03:07:43.733Z,5.78
2017-04-23T03:08:42.083Z,6.47
2017-04-23T03:09:40.355Z,11.97
2017-04-23T03:10:38.818Z,7.82
2017-04-23T03:11:37.163Z,11.72
2017-04-23T03:12:36.171Z,7.28
2017-04-23T03:13:34.817Z,8.73
2017-04-23T03:14:33.355Z,8.13
2017-04-23T03:15:31.616Z,8.08
2017-04-23T03:16:29.919Z,6.03
2017-04-23T03:17:28.286Z,10.48
2017-04-23T03:18:26.609Z,11.22
2017-04-23T03:19:24.911Z,9.05
2017-04-23T03:20:23.220Z,10.42
2017-04-23T03:21:21.511Z,12.50
2017-04-23T03:22:19.972Z,11.68
2017-04-23T03:23:18.316Z,4.37
2017-04-23T03:24:16.560Z,9.85
2017-04-23T03:25:14.975Z,9.27
2017-04-23T03:26:13.372Z,13.35
2017-04-23T03:27:11.621Z,12.60
2017-04-23T03:28:09.900Z,4.67
2017-04-23T03:29:08.185Z,9.17
2017-04-23T03:30:06.502Z,8.82
2017-04-23T03:31:04.788Z,7.82
2017-04-23T03:32:03.122Z,8.58
2017-04-23T03:33:02.199Z,6.53
2017-04-23T03:34:01.227Z,10.60
2017-04-23T03:34:59.420Z,9.68
2017-04-23T03:35:57.720Z,9.53
2017-04-23T03:36:56.730Z,8.10
2017-04-23T03:37:55.163Z,7.98
2017-04-23T03:38:54.150Z,7.17
2017-04-23T03:39:53.147Z,12.55
2017-04-23T03:40:52.214Z,11.40
2017-04-23T03:41:50.590Z,10.18
2017-04-23T03:42:48.940Z,12.85
2017-04-23T03:43:47.243Z,6.50
2017-04-23T03:44:45.525Z,7.22
2017-04-23T03:45:43.871Z,9.97
2017-04-23T03:46:42.883Z,10.90
2017-04-23T03:47:41.356Z,9.02
2017-04-23T03:48:40.212Z,9.97
2017-04-23T03:49:38.514Z,12.23
2017-04-23T03:50:36.781Z,15.57
2017-04-23T03:51:35.025Z,7.60
2017-04-23T03:52:33.251Z,10.93
2017-04-23T03:53:32.368Z,10.03
2017-04-23T03:54:30.685Z,10.42
2017-04-23T03:55:28.995Z,13.08
2017-04-23T03:56:28.001Z,15.87
2017-04-23T03:57:27.818Z,13.22
2017-04-23T03:58:26.098Z,7.13
2017-04-23T03:59:24.428Z,9.97
2017-04-23T04:00:22.800Z,9.82
2017-04-23T04:01:21.182Z,13.53
2017-04-23T04:02:19.433Z,9.98
2017-04-23T04:03:17.735Z,15.23
2017-04-23T04:04:16.046Z,6.22
2017-04-23T04:05:15.260Z,9.83
2017-04-23T04:06:13.520Z,9.87
2017-04-23T04:07:11.839Z,7.97
2017-04-23T04:08:10.192Z,12.97
2017-04-23T04:09:08.479Z,8.53
2017-04-23T04:10:06.788Z,7.77
2017-04-23T04:11:05.349Z,14.70
2017-04-23T04:12:04.347Z,9.63
2017-04-23T04:13:02.660Z,8.33
2017-04-23T04:14:00.906Z,6.87
2017-04-23T04:14:59.249Z,10.98
2017-04-23T04:15:57.552Z,9.42
2017-04-23T04:16:58.974Z,16.93
2017-04-23T04:17:57.282Z,11.37
2017-04-23T04:18:55.586Z,9.97
2017-04-23T04:19:53.865Z,9.72
2017-04-23T04:20:52.375Z,9.90
2017-04-23T04:21:50.755Z,11.25
2017-04-23T04:22:49.074Z,17.60
2017-04-23T04:23:48.378Z,8.22
2017-04-23T04:24:46.840Z,6.18
2017-04-23T04:25:45.151Z,11.73
2017-04-23T04:26:43.411Z,5.92
2017-04-23T04:27:41.726Z,10.83
2017-04-23T04:28:41.119Z,7.95
2017-04-23T04:29:39.932Z,13.03
2017-04-23T04:30:38.298Z,10.28
2017-04-23T04:31:36.503Z,7.80
2017-04-23T04:32:34.767Z,8.30
2017-04-23T04:33:33.071Z,14.12
2017-04-23T04:34:31.330Z,13.10
2017-04-23T04:35:30.150Z,11.42
2017-04-23T04:36:28.476Z,13.93
2017-04-23T04:37:26.774Z,9.32
2017-04-23T04:38:25.059Z,10.67
2017-04-23T04:39:23.323Z,9.93
2017-04-23T04:40:21.655Z,12.97
2017-04-23T04:41:19.911Z,13.18
2017-04-23T04:42:18.236Z,8.50
2017-04-23T04:43:16.547Z,9.33
2017-04-23T04:44:14.829Z,8.98
2017-04-23T04:45:13.064Z,9.92
2017-04-23T04:46:12.159Z,11.40
2017-04-23T04:47:10.517Z,15.10
2017-04-23T04:48:09.573Z,10.55
2017-04-23T04:49:07.854Z,13.08
2017-04-23T04:50:06.178Z,13.28
2017-04-23T04:51:04.481Z,14.78
2017-04-23T04:52:03.397Z,13.30
2017-04-23T04:53:01.752Z,12.58
2017-04-23T04:54:00.844Z,9.72
2017-04-23T04:55:00.822Z,8.60
2017-04-23T04:55:59.644Z,10.60
2017-04-23T04:56:57.939Z,7.57
2017-04-23T04:57:56.243Z,9.85
2017-04-23T04:58:54.517Z,12.70
2017-04-23T04:59:52.832Z,10.87
2017-04-23T05:00:51.363Z,12.38
2017-04-23T05:01:50.448Z,12.57
2017-04-23T05:02:49.427Z,11.30
2017-04-23T05:03:47.713Z,17.52
2017-04-23T05:04:46.842Z,11.82
2017-04-23T05:05:45.162Z,15.02
2017-04-23T05:06:44.200Z,14.42
2017-04-23T05:07:42.806Z,13.82
2017-04-23T05:08:41.842Z,16.53
2017-04-23T05:09:40.151Z,11.07
2017-04-23T05:10:38.435Z,11.20
2017-04-23T05:11:37.507Z,16.57
2017-04-23T05:12:36.509Z,13.05
2017-04-23T05:13:35.558Z,12.90
2017-04-23T05:14:33.856Z,14.95
2017-04-23T05:15:33.017Z,11.20
2017-04-23T05:16:31.295Z,13.10
2017-04-23T05:17:29.542Z,16.60
2017-04-23T05:18:27.809Z,13.65
2017-04-23T05:19:26.127Z,17.17
2017-04-23T05:20:24.452Z,17.70
2017-04-23T05:21:22.701Z,20.18
2017-04-23T05:22:20.970Z,10.37
2017-04-23T05:23:19.431Z,13.17
2017-04-23T05:24:17.725Z,18.10
2017-04-23T05:25:15.983Z,13.17
2017-04-23T05:26:15.023Z,15.55
2017-04-23T05:27:13.307Z,11.00
2017-04-23T05:28:11.573Z,17.25
2017-04-23T05:29:09.870Z,13.65
2017-04-23T05:30:08.139Z,12.32
2017-04-23T05:31:06.427Z,13.60
2017-04-23T05:32:05.440Z,11.07
2017-04-23T05:33:03.756Z,13.73
2017-04-23T05:34:02.066Z,14.23
2017-04-23T05:35:00.358Z,10.38
2017-04-23T05:35:58.653Z,9.53
2017-04-23T05:36:56.923Z,9.42
2017-04-23T05:37:55.251Z,13.07
2017-04-23T05:38:53.589Z,16.78
2017-04-23T05:39:52.639Z,14.35
2017-04-23T05:40:51.012Z,16.20
2017-04-23T05:41:49.371Z,11.17
2017-04-23T05:42:48.404Z,18.05
2017-04-23T05:43:47.003Z,12.80
2017-04-23T05:44:45.311Z,17.25
2017-04-23T05:45:44.115Z,11.78
2017-04-23T05:46:43.193Z,14.92
2017-04-23T05:47:41.458Z,12.33
2017-04-23T05:48:41.049Z,14.53
2017-04-23T05:49:40.098Z,16.35
2017-04-23T05:50:38.597Z,15.18
2017-04-23T05:51:36.950Z,11.75
2017-04-23T05:52:35.224Z,13.05
2017-04-23T05:53:33.688Z,12.63
2017-04-23T05:54:32.066Z,15.32
2017-04-23T05:55:30.390Z,16.72
2017-04-23T05:56:28.806Z,11.80
2017-04-23T05:57:27.253Z,10.45
2017-04-23T05:58:25.498Z,15.52
2017-04-23T05:59:24.470Z,11.95
2017-04-23T06:00:25.000Z,20.15
2017-04-23T06:01:25.511Z,17.57
2017-04-23T06:02:23.793Z,14.85
2017-04-23T06:03:22.994Z,13.28
2017-04-23T06:04:21.432Z,11.78
2017-04-23T06:05:19.844Z,11.62
2017-04-23T06:06:18.442Z,17.37
2017-04-23T06:07:16.730Z,11.78
2017-04-23T06:08:15.820Z,16.93
2017-04-23T06:09:14.088Z,24.40
2017-04-23T06:10:12.337Z,18.80
2017-04-23T06:11:11.437Z,15.58
2017-04-23T06:12:09.826Z,13.65
2017-04-23T06:13:08.127Z,10.40
2017-04-23T06:14:06.520Z,16.68
2017-04-23T06:15:05.606Z,14.47
2017-04-23T06:16:04.133Z,15.00
2017-04-23T06:17:02.431Z,13.67
2017-04-23T06:18:00.734Z,19.97
2017-04-23T06:18:59.749Z,11.18
2017-04-23T06:19:59.639Z,13.77
2017-04-23T06:20:58.069Z,15.15
2017-04-23T06:21:56.357Z,16.88
2017-04-23T06:22:54.589Z,10.53
2017-04-23T06:23:56.903Z,22.20
2017-04-23T06:24:57.253Z,16.42
2017-04-23T06:25:56.778Z,19.25
2017-04-23T06:26:57.261Z,9.67
2017-04-23T06:27:58.257Z,18.55
2017-04-23T06:29:01.927Z,16.50
2017-04-23T06:30:06.371Z,16.28
2017-04-23T06:31:05.793Z,11.67
2017-04-23T06:32:05.022Z,10.57
2017-04-23T06:33:04.513Z,15.70
2017-04-23T06:34:04.690Z,11.67
2017-04-23T06:35:03.773Z,13.43
2017-04-23T06:36:03.461Z,14.80
2017-04-23T06:37:02.735Z,13.32
2017-04-23T06:38:01.422Z,13.67
2017-04-23T06:39:00.122Z,16.05
2017-04-23T06:39:59.161Z,14.37
2017-04-23T06:40:57.449Z,11.67
2017-04-23T06:41:55.679Z,17.13
2017-04-23T06:42:55.516Z,8.80
2017-04-23T06:43:54.226Z,12.97
2017-04-23T06:44:54.159Z,12.47
2017-04-23T06:45:53.741Z,11.73
2017-04-23T06:46:53.167Z,12.00
2017-04-23T06:47:52.690Z,12.43
2017-04-23T06:48:50.952Z,14.80
2017-04-23T06:49:50.787Z,13.00
2017-04-23T06:50:49.106Z,11.50
2017-04-23T06:51:47.461Z,10.93
2017-04-23T06:52:46.224Z,12.23
2017-04-23T06:53:45.425Z,13.03
2017-04-23T06:54:47.013Z,22.73
2017-04-23T06:55:45.859Z,10.58
2017-04-23T06:56:45.406Z,13.68
2017-04-23T06:57:44.522Z,14.57
2017-04-23T06:58:44.539Z,11.52
2017-04-23T06:59:44.634Z,13.98
2017-04-23T07:00:48.906Z,12.70
2017-04-23T07:01:47.162Z,16.73
2017-04-23T07:02:47.961Z,11.20
2017-04-23T07:03:48.241Z,12.42
2017-04-23T07:04:47.381Z,14.93
2017-04-23T07:05:46.581Z,15.40
2017-04-23T07:06:45.037Z,10.45
2017-04-23T07:07:44.438Z,16.70
2017-04-23T07:08:45.880Z,16.42
2017-04-23T07:09:45.805Z,14.98
2017-04-23T07:10:45.980Z,9.00
2017-04-23T07:11:47.943Z,9.97
2017-04-23T07:12:48.516Z,12.35
2017-04-23T07:13:48.641Z,8.43
2017-04-23T07:14:50.911Z,17.10
2017-04-23T07:15:54.032Z,11.87
2017-04-23T07:16:57.996Z,14.47
2017-04-23T07:17:57.963Z,12.70
2017-04-23T07:18:59.346Z,11.77
2017-04-23T07:19:58.253Z,10.32
2017-04-23T07:20:58.035Z,11.32
2017-04-23T07:21:58.462Z,12.48
2017-04-23T07:22:58.784Z,12.22
2017-04-23T07:23:58.793Z,11.00
2017-04-23T07:24:57.244Z,11.82
2017-04-23T07:25:55.654Z,12.52
2017-04-23T07:26:54.207Z,13.68
2017-04-23T07:27:52.487Z,11.55
2017-04-23T07:28:50.915Z,10.08
2017-04-23T07:29:49.954Z,13.17
2017-04-23T07:30:48.502Z,10.40
2017-04-23T07:31:47.008Z,14.08
2017-04-23T07:32:46.882Z,12.05
2017-04-23T07:33:45.513Z,10.37
2017-04-23T07:34:44.318Z,7.22
2017-04-23T07:35:42.626Z,13.27
2017-04-23T07:36:41.622Z,11.72
2017-04-23T07:37:40.681Z,4.18
2017-04-23T07:38:39.083Z,10.57
2017-04-23T07:39:38.460Z,9.83
2017-04-23T07:40:37.965Z,10.10
2017-04-23T07:41:37.696Z,13.05
2017-04-23T07:52:21.051Z,9.12
2017-04-23T07:53:21.043Z,6.47
2017-04-23T07:54:19.427Z,9.42
2017-04-23T07:55:19.600Z,8.17
2017-04-23T07:56:20.231Z,7.72
2017-04-23T07:57:19.780Z,8.97
2017-04-23T07:58:18.678Z,6.82
2017-04-23T07:59:20.433Z,11.37
2017-04-23T08:00:18.831Z,6.13
2017-04-23T08:01:18.895Z,9.53
2017-04-23T08:02:18.764Z,7.85
2017-04-23T08:03:18.294Z,10.00
2017-04-23T08:04:17.273Z,14.37
2017-04-23T08:05:17.064Z,13.32
2017-04-23T08:06:15.635Z,8.15
2017-04-23T08:07:18.045Z,5.48
2017-04-23T08:08:16.687Z,5.75
2017-04-23T08:09:17.834Z,8.42
2017-04-23T08:10:16.136Z,11.62
2017-04-23T08:11:14.391Z,6.73
2017-04-23T08:12:13.124Z,4.72
2017-04-23T08:13:12.097Z,7.30
2017-04-23T08:14:11.179Z,5.50
2017-04-23T08:15:10.247Z,4.63
2017-04-23T08:16:09.504Z,6.17
2017-04-23T08:17:07.760Z,6.32
2017-04-23T08:18:06.057Z,8.17
2017-04-23T08:19:04.527Z,5.38
2017-04-23T08:20:02.817Z,2.45
2017-04-23T08:21:02.150Z,6.03
2017-04-23T08:22:00.447Z,10.87
2017-04-23T08:22:58.703Z,4.67
2017-04-23T08:23:57.008Z,9.62
2017-04-23T08:24:56.035Z,8.00
2017-04-23T08:25:54.932Z,6.33
2017-04-23T08:26:53.287Z,9.73
2017-04-23T08:27:51.546Z,5.62
2017-04-23T08:28:49.781Z,4.03
2017-04-23T08:29:48.747Z,4.83
2017-04-23T08:30:47.111Z,11.43
2017-04-23T08:31:46.148Z,9.28
2017-04-23T08:32:44.471Z,7.52
2017-04-23T08:33:42.729Z,5.77
2017-04-23T08:34:40.986Z,6.75
2017-04-23T08:35:39.248Z,11.73
2017-04-23T08:36:37.503Z,7.30
2017-04-23T08:37:35.862Z,10.85
2017-04-23T08:38:34.581Z,11.25
2017-04-23T08:39:32.866Z,7.65
2017-04-23T08:40:32.952Z,4.42
2017-04-23T08:41:31.205Z,8.00
2017-04-23T08:42:29.508Z,8.27
2017-04-23T08:43:28.283Z,7.25
2017-04-23T08:44:27.352Z,8.30
2017-04-23T08:45:25.924Z,11.88
2017-04-23T08:46:24.416Z,10.00
2017-04-23T08:47:26.229Z,5.83
2017-04-23T08:48:29.603Z,8.12
2017-04-23T08:49:34.119Z,6.42
2017-04-23T08:50:35.141Z,10.22
2017-04-23T08:51:34.743Z,8.15
2017-04-23T08:52:33.587Z,6.35
2017-04-23T08:53:33.433Z,6.88
2017-04-23T08:54:34.347Z,8.37
2017-04-23T09:05:17.653Z,9.28
2017-04-23T09:06:16.028Z,3.55
2017-04-23T09:07:15.456Z,4.08
2017-04-23T09:08:14.756Z,3.92
2017-04-23T09:09:13.625Z,5.22
2017-04-23T09:10:13.927Z,6.13
2017-04-23T09:11:15.804Z,5.45
2017-04-23T09:12:15.201Z,6.78
2017-04-23T09:13:13.850Z,2.85
2017-04-23T09:14:12.955Z,4.32
2017-04-23T09:15:13.553Z,7.30
2017-04-23T09:16:16.387Z,8.40
2017-04-23T09:17:15.404Z,6.75
2017-04-23T09:18:14.650Z,5.63
2017-04-23T09:19:15.000Z,9.13
2017-04-23T09:20:15.053Z,2.20
2017-04-23T09:21:13.835Z,6.38
2017-04-23T09:22:14.034Z,6.03
2017-04-23T09:23:13.712Z,5.10
2017-04-23T09:24:12.664Z,5.38
2017-04-23T09:25:11.311Z,5.98
2017-04-23T09:26:10.702Z,4.92
2017-04-23T09:27:09.632Z,8.97
2017-04-23T09:28:09.022Z,3.43
2017-04-23T09:29:08.094Z,4.08
2017-04-23T09:30:06.380Z,7.87
2017-04-23T09:31:05.249Z,7.10
2017-04-23T09:32:03.537Z,6.58
2017-04-23T09:33:03.087Z,7.47
2017-04-23T09:34:02.437Z,7.62
2017-04-23T09:35:02.151Z,5.48
2017-04-23T09:36:00.592Z,8.90
2017-04-23T09:37:00.134Z,8.03
2017-04-23T09:37:58.498Z,7.63
2017-04-23T09:38:56.749Z,6.18
2017-04-23T09:39:56.583Z,10.60
2017-04-23T09:40:57.992Z,9.17
2017-04-23T09:41:56.290Z,4.17
2017-04-23T09:42:55.305Z,5.98
2017-04-23T09:43:53.736Z,6.73
2017-04-23T09:44:52.103Z,7.97
2017-04-23T09:45:50.515Z,4.43
2017-04-23T09:46:48.770Z,4.70
2017-04-23T09:47:47.063Z,7.40
2017-04-23T09:48:46.075Z,4.40
2017-04-23T09:49:44.646Z,5.60
2017-04-23T09:50:43.089Z,5.15
2017-04-23T09:51:42.215Z,6.50
2017-04-23T09:52:41.218Z,4.98
2017-04-23T09:53:40.207Z,6.58
2017-04-23T09:54:38.469Z,6.67
2017-04-23T09:55:38.033Z,7.32
2017-04-23T09:56:37.203Z,6.73
2017-04-23T09:57:36.219Z,4.10
2017-04-23T09:58:34.535Z,3.88
2017-04-23T09:59:34.277Z,5.95
2017-04-23T10:00:32.543Z,34.60
2017-04-23T10:01:32.012Z,8.68
2017-04-23T10:02:31.000Z,10.67
2017-04-23T10:03:30.260Z,13.80
2017-04-23T10:04:28.543Z,10.05
2017-04-23T10:05:26.975Z,6.47
2017-04-23T10:06:25.270Z,5.97
2017-04-23T10:07:23.497Z,4.25
2017-04-23T10:08:21.753Z,6.02
2017-04-23T10:09:20.061Z,5.98
2017-04-23T10:10:18.327Z,4.53
2017-04-23T10:11:16.642Z,8.08
2017-04-23T10:12:14.944Z,4.75
2017-04-23T10:13:13.232Z,5.17
2017-04-23T10:14:11.472Z,2.93
2017-04-23T10:15:10.011Z,6.35
2017-04-23T10:16:09.043Z,6.18
2017-04-23T10:17:07.375Z,8.37
2017-04-23T10:18:06.675Z,2.13
2017-04-23T10:19:05.656Z,6.22
2017-04-23T10:20:03.978Z,4.78
2017-04-23T10:21:02.333Z,6.27
2017-04-23T10:22:00.610Z,7.52
2017-04-23T10:22:58.979Z,11.32
2017-04-23T10:23:58.354Z,8.50
2017-04-23T10:24:57.566Z,4.73
2017-04-23T10:25:56.882Z,5.65
2017-04-23T10:26:55.802Z,3.98
2017-04-23T10:27:54.134Z,6.60
2017-04-23T10:28:52.575Z,6.97
2017-04-23T10:29:51.624Z,8.60
2017-04-23T10:30:50.030Z,4.87
2017-04-23T10:31:48.341Z,5.28
2017-04-23T10:32:46.644Z,6.38
2017-04-23T10:33:45.066Z,6.38
2017-04-23T10:34:43.616Z,8.40
2017-04-23T10:35:42.623Z,4.75
2017-04-23T10:36:41.551Z,6.92
2017-04-23T10:37:39.955Z,9.17
2017-04-23T10:38:38.915Z,7.13
2017-04-23T10:39:37.191Z,5.90
2017-04-23T10:40:35.519Z,3.77
2017-04-23T10:41:34.340Z,6.27
2017-04-23T10:42:33.529Z,5.17
2017-04-23T10:43:32.531Z,5.02
2017-04-23T10:44:31.683Z,2.43
2017-04-23T10:45:31.118Z,3.43
2017-04-23T10:46:29.417Z,4.50
2017-04-23T10:47:28.682Z,5.88
2017-04-23T10:48:27.030Z,4.67
2017-04-23T10:49:26.575Z,3.27
2017-04-23T10:50:26.043Z,6.25
2017-04-23T10:51:24.958Z,4.12
2017-04-23T10:52:23.216Z,5.33
2017-04-23T10:53:21.906Z,3.78
2017-04-23T10:54:20.191Z,4.25
2017-04-23T10:55:18.496Z,5.72
2017-04-23T10:56:16.802Z,3.83
2017-04-23T10:57:15.191Z,4.18
2017-04-23T10:58:14.148Z,9.18
2017-04-23T10:59:12.474Z,8.63
2017-04-23T11:00:11.543Z,3.45
2017-04-23T11:01:10.739Z,9.12
2017-04-23T11:02:09.843Z,6.62
2017-04-23T11:03:09.251Z,8.08
2017-04-23T11:04:07.823Z,3.07
2017-04-23T11:05:06.169Z,7.47
2017-04-23T11:06:04.444Z,2.55
2017-04-23T11:07:02.739Z,6.25
2017-04-23T11:08:01.011Z,3.73
2017-04-23T11:08:59.396Z,3.62
2017-04-23T11:09:57.710Z,4.42
2017-04-23T11:10:56.056Z,4.17
2017-04-23T11:11:54.298Z,2.65
2017-04-23T11:12:52.682Z,4.60
2017-04-23T11:13:51.808Z,5.83
2017-04-23T11:14:50.182Z,5.67
2017-04-23T11:15:49.133Z,4.87
2017-04-23T11:16:48.149Z,3.42
2017-04-23T11:17:46.622Z,2.75
2017-04-23T11:18:45.097Z,4.98
2017-04-23T11:19:43.548Z,3.80
2017-04-23T11:20:41.853Z,4.58
2017-04-23T11:21:40.430Z,3.33
2017-04-23T11:22:38.797Z,3.97
2017-04-23T11:23:37.152Z,3.03
2017-04-23T11:24:35.441Z,3.80
2017-04-23T11:25:33.779Z,2.55
2017-04-23T11:26:32.071Z,5.12
2017-04-23T11:27:30.730Z,6.78
2017-04-23T11:28:29.083Z,4.72
2017-04-23T11:29:27.695Z,3.82
2017-04-23T11:30:26.227Z,4.82
2017-04-23T11:31:24.495Z,8.90
2017-04-23T11:32:23.331Z,3.67
2017-04-23T11:33:21.636Z,4.83
2017-04-23T11:34:20.077Z,4.92
2017-04-23T11:35:19.070Z,4.83
2017-04-23T11:36:17.481Z,4.35
2017-04-23T11:37:17.325Z,6.43
2017-04-23T11:38:15.773Z,2.28
2017-04-23T11:39:18.885Z,3.78
2017-04-23T11:40:18.139Z,2.58
2017-04-23T11:41:17.456Z,5.70
2017-04-23T11:42:15.821Z,4.58
2017-04-23T11:43:14.313Z,4.17
2017-04-23T11:44:23.656Z,3.65
2017-04-23T11:45:23.234Z,3.33
2017-04-23T11:46:23.506Z,3.78
2017-04-23T11:47:23.495Z,4.58
2017-04-23T11:48:24.112Z,4.15
2017-04-23T11:49:23.811Z,4.90
2017-04-23T11:50:23.896Z,5.45
2017-04-23T11:51:24.283Z,5.90
2017-04-23T11:52:26.064Z,3.58
2017-04-23T11:53:31.903Z,4.55
2017-04-23T11:54:36.329Z,2.70
2017-04-23T11:55:41.376Z,5.20
2017-04-23T11:56:45.346Z,3.33
2017-04-23T11:57:54.117Z,2.40
2017-04-23T11:59:02.155Z,3.35
2017-04-23T12:16:15.848Z,3.90
2017-04-23T12:17:15.135Z,4.93
2017-04-23T12:18:14.239Z,4.52
2017-04-23T12:19:13.976Z,3.05
2017-04-23T12:20:12.422Z,4.62
2017-04-23T12:21:10.715Z,4.00
2017-04-23T12:22:09.453Z,8.08
2017-04-23T12:23:08.013Z,5.55
2017-04-23T12:24:06.294Z,6.23
2017-04-23T12:25:04.771Z,7.03
2017-04-23T12:26:03.119Z,4.63
2017-04-23T12:27:02.011Z,6.47
2017-04-23T12:28:01.138Z,8.58
2017-04-23T12:28:59.426Z,3.92
2017-04-23T12:29:57.743Z,4.62
2017-04-23T12:30:56.030Z,6.42
2017-04-23T12:31:54.393Z,4.15
2017-04-23T12:32:53.446Z,6.43
2017-04-23T12:33:51.752Z,4.63
2017-04-23T12:34:50.050Z,7.62
2017-04-23T12:35:48.346Z,4.78
2017-04-23T12:36:47.639Z,7.78
2017-04-23T12:37:46.000Z,5.25
2017-04-23T12:38:44.865Z,6.23
2017-04-23T12:39:43.242Z,3.42
2017-04-23T12:40:41.584Z,3.72
2017-04-23T12:41:44.277Z,3.95
2017-04-23T12:42:44.201Z,5.77
2017-04-23T12:43:44.087Z,5.62
2017-04-23T12:44:43.368Z,3.17
2017-04-23T12:45:43.924Z,5.72
2017-04-23T12:46:43.409Z,5.50
2017-04-23T12:57:26.820Z,4.72
2017-04-23T12:58:25.195Z,3.90
2017-04-23T12:59:24.409Z,5.48
2017-04-23T13:00:23.209Z,4.68
2017-04-23T13:01:24.884Z,6.88
2017-04-23T13:02:23.288Z,4.98
2017-04-23T13:03:22.736Z,8.25
2017-04-23T13:04:21.244Z,5.38
2017-04-23T13:05:19.720Z,5.03
2017-04-23T13:06:18.764Z,6.03
2017-04-23T13:07:17.071Z,5.15
2017-04-23T13:08:16.607Z,5.28
2017-04-23T13:09:15.249Z,6.85
2017-04-23T13:10:13.987Z,4.15
2017-04-23T13:11:12.420Z,5.27
2017-04-23T13:12:10.819Z,5.28
2017-04-23T13:13:09.924Z,6.05
2017-04-23T13:14:08.317Z,4.05
2017-04-23T13:15:06.599Z,4.02
2017-04-23T13:16:04.969Z,10.03
2017-04-23T13:17:03.535Z,7.35
2017-04-23T13:18:02.641Z,6.28
2017-04-23T13:19:00.939Z,3.23
2017-04-23T13:19:59.319Z,6.97
2017-04-23T13:20:57.975Z,4.50
2017-04-23T13:21:56.549Z,8.43
2017-04-23T13:22:55.481Z,9.27
2017-04-23T13:23:53.923Z,9.55
2017-04-23T13:24:52.423Z,9.22
2017-04-23T13:25:51.577Z,8.18
2017-04-23T13:26:49.862Z,6.55
2017-04-23T13:27:48.900Z,6.05
2017-04-23T13:28:47.753Z,4.93
2017-04-23T13:29:46.811Z,4.95
2017-04-23T13:30:45.193Z,9.02
2017-04-23T13:31:43.608Z,4.83
2017-04-23T13:32:43.165Z,5.42
2017-04-23T13:33:42.387Z,4.85
2017-04-23T13:34:40.756Z,7.67
2017-04-23T13:35:39.653Z,5.27
2017-04-23T13:36:38.097Z,6.03
2017-04-23T13:37:37.742Z,3.92
2017-04-23T13:38:36.091Z,3.70
2017-04-23T13:39:34.466Z,5.55
2017-04-23T13:40:35.595Z,2.57
2017-04-23T13:41:33.944Z,6.73
2017-04-23T13:42:32.243Z,3.97
2017-04-23T13:43:30.914Z,7.78
2017-04-23T13:44:29.377Z,6.33